Time;durP1;ratioP1;P1;durP2;ratioP2;P2;SDS_P1;SDS_P2;PMS_P1;PMS_P2;Temp;Humidity;BMP_temperature;BMP_pressure;BME280_temperature;BME280_humidity;BME280_pressure;Samples;Min_cycle;Max_cycle;Signal;HPM_P1;HPM_P2
2022/09/06 00:01:12;;;;;;;6.03;3.00;;;7.90;54.60;;;8.45;90.77;100175.25;5038433;27;122462;-69
2022/09/06 00:03:41;;;;;;;6.35;3.08;;;7.80;60.00;;;8.37;91.27;100175.84;5039770;27;122428;-69
2022/09/06 00:06:13;;;;;;;5.90;3.55;;;7.80;59.50;;;8.34;91.80;100170.97;5039310;27;130455;-69
2022/09/06 00:08:44;;;;;;;6.70;2.92;;;7.70;67.80;;;8.22;91.94;100174.81;5037593;27;129585;-69
2022/09/06 00:11:13;;;;;;;5.82;3.25;;;7.60;76.00;;;8.17;92.09;100172.16;5019015;28;119612;-69
2022/09/06 00:13:44;;;;;;;4.93;2.85;;;7.60;75.30;;;8.17;92.46;100177.56;5021928;27;119005;-69
2022/09/06 00:16:15;;;;;;;7.90;3.30;;;7.50;78.80;;;8.09;92.84;100176.25;5022513;28;130282;-69
2022/09/06 00:18:44;;;;;;;6.93;3.08;;;7.50;88.30;;;7.95;94.32;100177.09;5023078;28;129462;-68
2022/09/06 00:21:20;;;;;;;6.93;3.30;;;7.40;91.40;;;7.91;93.73;100177.66;5022677;28;119613;-69
2022/09/06 00:23:49;;;;;;;6.07;3.13;;;7.40;91.20;;;7.92;94.19;100182.00;5022861;28;119597;-69
2022/09/06 00:26:18;;;;;;;7.45;3.22;;;7.40;92.40;;;7.95;94.38;100180.63;5021280;28;130684;-69
2022/09/06 00:28:48;;;;;;;8.48;3.10;;;7.40;94.60;;;8.00;93.78;100183.31;5022193;28;129468;-68
2022/09/06 00:31:19;;;;;;;6.28;2.90;;;7.40;93.80;;;7.91;94.67;100180.38;5008321;28;118566;-68
2022/09/06 00:33:47;;;;;;;6.97;3.13;;;7.40;96.80;;;7.87;94.94;100173.91;5022603;28;119377;-68
2022/09/06 00:36:16;;;;;;;5.50;3.00;;;7.40;94.50;;;7.88;95.44;100174.72;5022055;28;130851;-69
2022/09/06 00:38:45;;;;;;;6.05;3.30;;;7.40;95.70;;;7.89;94.97;100171.72;5022199;28;130440;-69
2022/09/06 00:41:16;;;;;;;6.40;3.33;;;7.40;97.50;;;7.88;95.57;100174.72;5022498;28;119698;-69
2022/09/06 00:43:47;;;;;;;6.47;3.40;;;7.40;98.20;;;7.85;95.64;100173.38;5024918;28;119891;-68
2022/09/06 00:46:20;;;;;;;5.32;3.05;;;7.40;99.90;;;7.88;95.55;100174.72;5022027;28;130107;-69
2022/09/06 00:48:54;;;;;;;6.82;2.95;;;7.30;99.90;;;7.90;95.47;100172.56;5021987;28;129734;-68
2022/09/06 00:51:28;;;;;;;7.35;3.28;;;7.30;99.90;;;7.88;95.24;100178.25;5023045;28;121796;-69
2022/09/06 00:53:56;;;;;;;8.18;3.13;;;7.30;99.90;;;7.90;95.21;100167.16;5022503;28;121534;-68
2022/09/06 00:56:27;;;;;;;6.93;3.70;;;7.30;99.90;;;7.89;95.62;100177.13;5022325;28;129726;-69
2022/09/06 00:58:57;;;;;;;5.80;3.08;;;7.20;99.90;;;7.90;95.88;100172.56;5022010;28;130150;-69
2022/09/06 01:01:26;;;;;;;6.35;3.15;;;7.20;99.90;;;7.88;95.85;100178.25;5022278;28;119806;-70
2022/09/06 01:03:55;;;;;;;6.75;2.78;;;7.30;99.90;;;7.80;96.56;100173.38;5037731;27;119734;-69
2022/09/06 01:06:29;;;;;;;6.05;3.13;;;7.30;99.90;;;7.71;97.00;100169.63;5042062;27;130710;-69
2022/09/06 01:09:10;;;;;;;6.68;3.67;;;7.30;99.90;;;7.73;96.95;100167.50;5042641;27;129509;-68
2022/09/06 01:12:05;;;;;;;5.95;3.50;;;7.30;99.90;;;7.76;96.83;100169.66;5042405;27;119962;-68
2022/09/06 01:14:52;;;;;;;6.13;2.92;;;7.30;99.90;;;7.74;96.85;100169.91;5042292;27;119237;-68
2022/09/06 01:17:32;;;;;;;8.57;3.05;;;7.30;99.90;;;7.79;96.94;100177.19;5040683;27;129988;-69
2022/09/06 01:20:41;;;;;;;6.22;3.10;;;7.30;99.90;;;7.72;97.44;100172.06;5042093;27;130068;-69
2022/09/06 01:24:04;;;;;;;6.00;3.20;;;7.20;99.90;;;7.71;97.45;100183.16;5043548;27;119615;-69
2022/09/06 01:27:15;;;;;;;8.32;3.45;;;7.20;99.90;;;7.66;97.70;100169.66;5042877;27;120938;-69
2022/09/06 01:29:50;;;;;;;7.38;3.70;;;7.20;99.90;;;7.68;97.54;100181.00;5010720;27;130222;-70
2022/09/06 01:32:30;;;;;;;6.57;3.35;;;7.20;99.90;;;7.71;97.62;100173.16;5041884;27;130197;-69
2022/09/06 01:35:07;;;;;;;7.45;3.30;;;7.30;99.90;;;7.71;97.33;100175.03;5042033;27;119631;-69
2022/09/06 01:37:36;;;;;;;7.63;3.67;;;7.30;99.90;;;7.74;97.51;100174.50;5027484;27;118586;-69
2022/09/06 01:40:06;;;;;;;6.78;4.00;;;7.30;99.90;;;7.78;97.20;100175.56;5041631;27;130294;-69
2022/09/06 01:42:37;;;;;;;6.90;3.13;;;7.30;99.90;;;7.72;97.58;100171.28;5009581;27;129077;-69
2022/09/06 01:45:11;;;;;;;6.47;3.08;;;7.30;99.90;;;7.74;97.83;100169.09;5040590;27;122703;-69
2022/09/06 01:47:54;;;;;;;6.68;2.95;;;7.40;99.90;;;7.77;97.17;100179.34;5041719;27;121803;-69
2022/09/06 01:50:48;;;;;;;5.53;3.03;;;7.40;99.90;;;7.72;97.29;100176.69;5041408;27;130061;-69
2022/09/06 01:53:35;;;;;;;6.78;3.08;;;7.40;99.90;;;7.76;97.25;100180.44;5026378;27;129637;-69
2022/09/06 01:56:16;;;;;;;7.50;3.33;;;7.40;99.90;;;7.70;98.03;100168.03;5041581;27;119752;-69
2022/09/06 01:59:11;;;;;;;6.45;3.50;;;7.40;99.90;;;7.73;98.57;100172.91;5026638;27;118940;-69
2022/09/06 02:01:52;;;;;;;5.90;2.85;;;7.40;99.90;;;7.82;97.76;100176.66;5041214;27;130443;-69
2022/09/06 02:04:26;;;;;;;5.97;3.17;;;7.40;99.90;;;7.91;97.46;100183.06;5043853;27;130051;-71
2022/09/06 02:07:01;;;;;;;6.10;3.20;;;7.50;99.90;;;7.84;97.66;100179.88;5041613;27;119808;-70
2022/09/06 02:09:37;;;;;;;9.00;2.97;;;7.60;99.90;;;7.91;97.25;100183.06;5041533;27;120125;-69
2022/09/06 02:12:08;;;;;;;6.32;3.03;;;7.60;99.90;;;7.99;96.86;100183.59;5056108;27;130003;-69
2022/09/06 02:14:42;;;;;;;6.45;2.85;;;7.60;99.90;;;8.02;96.61;100177.63;5061527;27;129439;-69
2022/09/06 02:17:19;;;;;;;6.32;2.90;;;7.70;99.70;;;8.07;96.10;100172.19;5061537;27;120001;-68
2022/09/06 02:19:53;;;;;;;5.60;2.83;;;7.70;98.10;;;8.13;95.63;100173.78;5046808;27;119440;-68
2022/09/06 02:22:27;;;;;;;6.88;3.35;;;7.70;99.00;;;8.14;96.04;100183.50;5046060;27;128883;-69
2022/09/06 02:24:58;;;;;;;5.68;2.95;;;7.70;98.80;;;8.14;96.84;100177.31;5061350;27;129994;-70
2022/09/06 02:27:27;;;;;;;5.88;2.75;;;7.80;99.90;;;8.10;96.41;100168.94;5043315;27;119803;-69
2022/09/06 02:29:55;;;;;;;7.68;3.30;;;7.70;99.90;;;8.09;96.53;100170.84;5061926;27;119383;-69
2022/09/06 02:32:26;;;;;;;6.82;3.25;;;7.70;99.90;;;8.07;96.91;100172.19;5043212;27;131070;-69
2022/09/06 02:34:57;;;;;;;8.40;3.20;;;7.70;99.90;;;8.09;96.87;100178.16;5060594;27;129839;-69
2022/09/06 02:37:27;;;;;;;5.75;2.90;;;7.60;99.90;;;8.03;97.44;100179.25;5059710;27;122029;-70
2022/09/06 02:39:56;;;;;;;5.55;2.80;;;7.60;99.90;;;7.99;97.50;100172.78;5061531;27;121789;-69
2022/09/06 02:42:25;;;;;;;5.88;2.95;;;7.60;99.90;;;7.97;97.74;100183.06;5060933;27;130263;-70
2022/09/06 02:44:54;;;;;;;7.57;3.40;;;7.60;99.90;;;7.96;97.83;100176.03;5060990;27;131473;-70
2022/09/06 02:47:23;;;;;;;7.13;3.42;;;7.60;99.90;;;7.92;98.82;100171.19;5061072;27;119726;-71
2022/09/06 02:49:52;;;;;;;7.88;3.30;;;7.60;99.90;;;7.90;99.39;100178.75;5061398;27;120406;-70
2022/09/06 02:52:21;;;;;;;7.22;2.92;;;7.60;99.90;;;7.88;99.83;100174.72;5060813;27;130786;-69
2022/09/06 02:54:50;;;;;;;7.15;3.10;;;7.60;99.90;;;7.95;99.17;100175.22;5046085;27;129185;-68
2022/09/06 02:57:19;;;;;;;6.68;3.25;;;7.60;99.90;;;7.99;99.11;100172.78;5060937;27;119548;-71
2022/09/06 02:59:47;;;;;;;6.00;3.30;;;7.60;99.90;;;8.02;99.61;100173.03;5045943;27;118464;-69
2022/09/06 03:02:16;;;;;;;7.38;3.47;;;7.70;99.90;;;8.04;99.68;100178.16;5058993;27;130240;-70
2022/09/06 03:04:45;;;;;;;6.88;3.65;;;7.70;99.90;;;8.09;99.22;100175.44;5060612;27;129707;-68
2022/09/06 03:07:15;;;;;;;8.13;3.40;;;7.70;99.90;;;8.13;99.21;100179.19;5061112;27;119532;-68
2022/09/06 03:09:44;;;;;;;8.07;3.50;;;7.70;99.90;;;8.15;99.14;100182.44;5045491;27;119900;-68
2022/09/06 03:12:12;;;;;;;6.15;3.30;;;7.70;99.90;;;7.99;100.00;100175.47;5060497;27;129757;-68
2022/09/06 03:14:41;;;;;;;6.25;3.55;;;7.70;99.90;;;7.91;100.00;100176.88;5060355;27;129713;-69
2022/09/06 03:17:09;;;;;;;6.72;3.70;;;7.70;99.90;;;7.89;100.00;100176.34;5060823;27;119880;-69
2022/09/06 03:19:38;;;;;;;7.63;3.10;;;7.70;99.90;;;7.93;100.00;100182.78;5063006;27;119111;-69
2022/09/06 03:22:07;;;;;;;7.22;3.58;;;7.70;99.90;;;7.92;100.00;100181.19;5060165;27;130038;-69
2022/09/06 03:24:37;;;;;;;8.45;3.25;;;7.60;99.90;;;7.97;100.00;100180.38;5060251;27;129934;-70
2022/09/06 03:27:06;;;;;;;5.57;3.22;;;7.70;99.90;;;7.99;100.00;100180.88;5059184;27;121588;-71
2022/09/06 03:29:35;;;;;;;7.07;3.47;;;7.70;99.90;;;8.07;100.00;100183.00;5045410;27;121702;-69
2022/09/06 03:32:04;;;;;;;6.07;3.70;;;7.70;99.90;;;8.12;100.00;100182.16;5060176;27;129760;-68
2022/09/06 03:34:33;;;;;;;7.47;3.17;;;7.70;99.90;;;8.18;100.00;100172.94;5056348;27;129520;-67
2022/09/06 03:37:02;;;;;;;7.57;3.53;;;7.80;99.90;;;8.26;100.00;100184.00;5060261;27;120620;-68
2022/09/06 03:39:31;;;;;;;6.72;3.30;;;7.80;99.90;;;8.33;99.35;100191.78;5059704;27;119764;-68
2022/09/06 03:42:01;;;;;;;6.65;3.30;;;7.80;99.90;;;8.34;99.05;100187.22;5059499;27;130264;-68
2022/09/06 03:44:29;;;;;;;6.47;3.38;;;7.80;99.90;;;8.37;99.17;100178.53;5045289;27;128310;-68
2022/09/06 03:46:58;;;;;;;7.32;3.67;;;7.80;99.90;;;8.40;98.99;100183.38;5060020;27;120249;-68
2022/09/06 03:49:26;;;;;;;6.70;2.97;;;7.90;99.90;;;8.47;98.67;100185.81;5059796;27;119515;-70
2022/09/06 03:51:55;;;;;;;7.93;3.70;;;7.90;99.90;;;8.43;98.88;100183.66;5057972;27;130028;-68
2022/09/06 03:54:23;;;;;;;6.28;2.90;;;7.90;99.90;;;8.34;98.88;100185.31;5059764;27;129730;-69
2022/09/06 03:56:52;;;;;;;9.00;3.90;;;7.90;99.90;;;8.30;99.59;100186.13;5041795;27;120080;-68
2022/09/06 03:59:22;;;;;;;6.70;3.55;;;7.90;99.90;;;8.37;98.92;100170.44;5044396;27;118435;-68
2022/09/06 04:01:51;;;;;;;6.05;3.00;;;8.00;99.90;;;8.39;98.27;100184.47;5058979;27;130173;-68
2022/09/06 04:04:19;;;;;;;5.78;3.00;;;8.00;99.90;;;8.45;98.29;100188.78;5062125;27;130086;-69
2022/09/06 04:06:48;;;;;;;7.90;3.30;;;8.00;99.90;;;8.52;97.60;100188.47;5041468;27;119735;-68
2022/09/06 04:09:17;;;;;;;6.22;3.47;;;8.00;99.90;;;8.52;97.28;100189.25;5060296;27;119334;-68
2022/09/06 04:11:45;;;;;;;6.32;3.38;;;8.00;99.90;;;8.57;97.05;100183.00;5058252;27;130364;-69
2022/09/06 04:14:14;;;;;;;6.32;3.10;;;8.10;99.90;;;8.58;97.02;100180.03;5059379;27;130047;-68
2022/09/06 04:16:44;;;;;;;6.97;2.95;;;8.10;99.90;;;8.62;96.38;100183.78;5058677;27;122545;-67
2022/09/06 04:19:12;;;;;;;6.45;3.20;;;8.10;99.90;;;8.56;96.62;100184.13;5058411;27;122086;-68
2022/09/06 04:21:41;;;;;;;5.55;2.60;;;8.10;99.90;;;8.55;96.61;100183.28;5043048;27;129708;-68
2022/09/06 04:24:09;;;;;;;6.55;2.97;;;8.10;99.90;;;8.35;97.28;100178.00;5044627;27;129358;-68
2022/09/06 04:26:38;;;;;;;6.00;3.00;;;8.10;99.90;;;8.41;97.66;100176.88;5059629;27;119932;-69
2022/09/06 04:29:07;;;;;;;6.93;3.50;;;8.10;99.90;;;8.49;97.24;100170.09;5059443;27;119403;-69
2022/09/06 04:31:35;;;;;;;6.15;3.30;;;8.20;99.90;;;8.54;96.92;100180.88;5057966;27;130480;-69
2022/09/06 04:34:05;;;;;;;8.63;3.05;;;8.20;99.30;;;8.58;96.69;100181.94;5057776;27;130279;-68
2022/09/06 04:36:35;;;;;;;5.57;3.03;;;8.20;98.70;;;8.63;96.44;100180.00;5059907;27;119607;-67
2022/09/06 04:39:04;;;;;;;6.20;3.25;;;8.30;98.00;;;8.84;95.80;100179.06;5044324;27;119272;-68
2022/09/06 04:41:32;;;;;;;5.53;2.88;;;8.40;97.20;;;8.96;94.10;100171.34;5058146;27;130800;-68
2022/09/06 04:44:01;;;;;;;5.22;2.65;;;8.40;88.90;;;9.14;93.82;100175.25;5058959;27;129506;-68
2022/09/06 04:46:30;;;;;;;6.28;2.72;;;8.50;89.00;;;9.31;92.19;100170.19;5058710;27;119638;-69
2022/09/06 04:49:00;;;;;;;6.07;3.08;;;8.60;89.10;;;9.42;90.97;100167.41;5059397;27;119633;-69
2022/09/06 04:51:30;;;;;;;5.72;2.72;;;8.60;81.60;;;9.51;90.47;100179.22;5059062;27;129776;-69
2022/09/06 04:53:59;;;;;;;6.38;2.88;;;8.70;78.90;;;9.46;89.67;100173.88;5059149;27;129749;-68
2022/09/06 04:56:29;;;;;;;9.20;2.75;;;8.70;63.90;;;9.20;90.88;100179.53;5059639;27;119766;-67
2022/09/06 04:58:57;;;;;;;5.20;2.92;;;8.50;75.80;;;8.98;92.10;100175.38;5060810;27;120273;-68
2022/09/06 05:01:26;;;;;;;5.35;2.80;;;8.40;88.90;;;9.00;92.87;100173.19;5063004;27;130505;-67
2022/09/06 05:03:54;;;;;;;5.88;2.88;;;8.50;89.00;;;9.27;90.84;100171.06;5064456;27;129370;-68
2022/09/06 05:06:24;;;;;;;7.45;3.00;;;8.60;65.20;;;9.43;89.75;100174.44;5061526;27;121833;-68
2022/09/06 05:08:54;;;;;;;7.82;3.25;;;8.80;59.20;;;9.44;89.43;100176.88;5047393;27;121053;-68
2022/09/06 05:11:23;;;;;;;7.85;3.00;;;8.70;57.10;;;9.46;89.42;100163.84;5062342;27;130426;-67
2022/09/06 05:13:51;;;;;;;5.57;2.50;;;8.80;56.50;;;9.60;88.73;100180.22;5062574;27;130014;-67
2022/09/06 05:16:20;;;;;;;7.53;3.05;;;8.90;50.30;;;9.64;88.16;100175.81;5062807;27;119816;-67
2022/09/06 05:18:49;;;;;;;8.48;2.97;;;8.90;43.40;;;9.81;87.62;100179.97;5062334;27;119708;-68
2022/09/06 05:21:17;;;;;;;6.85;3.10;;;9.10;31.00;;;9.76;87.29;100183.53;5062589;27;130177;-68
2022/09/06 05:23:46;;;;;;;6.65;2.60;;;9.00;40.80;;;9.75;87.80;100179.22;5062705;27;129804;-68
2022/09/06 05:26:17;;;;;;;5.80;2.92;;;9.10;40.80;;;9.92;87.24;100183.38;5062586;27;119702;-69
2022/09/06 05:28:45;;;;;;;8.25;2.75;;;9.20;29.00;;;9.63;86.97;100185.06;5062288;27;120066;-68
2022/09/06 05:31:26;;;;;;;6.22;2.60;;;9.00;28.90;;;9.77;87.03;100189.75;5060913;27;130169;-69
2022/09/06 05:33:56;;;;;;;7.30;2.83;;;9.20;27.50;;;9.84;87.12;100184.81;5062170;27;129364;-68
2022/09/06 05:36:25;;;;;;;6.88;2.85;;;9.20;24.90;;;9.97;86.26;100189.53;5062556;27;119861;-68
2022/09/06 05:38:55;;;;;;;5.90;2.90;;;9.30;19.20;;;10.20;85.58;100184.34;5062159;27;119756;-68
2022/09/06 05:41:27;;;;;;;7.03;2.67;;;9.50;18.60;;;10.25;84.32;100190.53;5061974;27;130844;-69
2022/09/06 05:43:56;;;;;;;6.50;2.92;;;9.50;7.30;;;9.82;85.11;100198.66;5061886;27;129448;-67
2022/09/06 05:46:25;;;;;;;6.35;2.70;;;9.20;11.60;;;9.75;86.62;100181.13;5047267;27;118578;-69
2022/09/06 05:48:55;;;;;;;8.05;2.90;;;9.20;18.00;;;9.74;86.74;100190.34;5062363;27;119849;-69
2022/09/06 05:51:24;;;;;;;5.85;2.90;;;9.20;15.80;;;9.93;85.68;100183.06;5061814;27;129639;-69
2022/09/06 05:53:53;;;;;;;5.10;2.20;;;9.30;16.20;;;9.80;86.27;100189.19;5061627;27;129604;-69
2022/09/06 05:56:22;;;;;;;6.53;2.55;;;9.30;11.00;;;9.82;86.82;100190.53;5060647;27;122475;-68
2022/09/06 05:58:51;;;;;;;6.28;2.92;;;9.30;15.10;;;9.95;86.04;100185.50;5061854;27;121877;-68
2022/09/06 06:01:23;;;;;;;6.57;2.92;;;9.40;13.30;;;10.28;84.92;100183.69;5061288;27;129744;-68
2022/09/06 06:03:54;;;;;;;6.05;2.63;;;9.50;11.10;;;10.52;83.16;100189.09;5062975;27;129916;-69
2022/09/06 06:06:26;;;;;;;6.70;3.00;;;9.70;1.00;;;10.76;81.47;100188.97;5065723;27;102756;-68
2022/09/06 06:08:55;;;;;;;6.28;2.53;;;9.70;1.00;;;10.53;82.67;100176.31;5062256;27;119368;-68
2022/09/06 06:11:24;;;;;;;5.47;2.63;;;9.60;8.30;;;10.58;82.76;100176.22;5061590;27;130227;-68
2022/09/06 06:13:55;;;;;;;6.43;3.60;;;9.80;2.00;;;10.93;81.20;100182.22;5061552;27;129444;-69
2022/09/06 06:16:24;;;;;;;6.75;2.63;;;10.00;1.00;;;11.25;79.64;100172.41;5061625;27;119542;-68
2022/09/06 06:18:53;;;;;;;4.55;2.20;;;10.20;1.00;;;11.54;77.09;100183.03;5061832;27;119285;-69
2022/09/06 06:21:25;;;;;;;5.18;2.53;;;10.40;1.00;;;11.58;76.28;100185.97;5059856;27;129891;-69
2022/09/06 06:23:56;;;;;;;8.48;2.97;;;10.20;1.00;;;11.85;75.45;100185.16;5061318;27;130312;-70
2022/09/06 06:26:26;;;;;;;8.38;2.90;;;10.40;1.00;;;11.99;74.92;100190.59;5061644;27;119604;-70
2022/09/06 06:29:00;;;;;;;6.43;2.90;;;10.50;1.00;;;12.20;72.84;100199.97;5061615;27;120095;-70
2022/09/06 06:31:30;;;;;;;5.78;2.60;;;10.20;1.00;;;12.15;73.21;100194.59;5061831;27;130304;-69
2022/09/06 06:34:01;;;;;;;5.40;3.03;;;10.40;1.00;;;12.43;72.65;100200.00;5042835;27;130439;-71
2022/09/06 06:36:32;;;;;;;6.05;3.10;;;10.70;1.00;;;12.45;72.90;100197.78;5061525;27;119806;-71
2022/09/06 06:39:02;;;;;;;6.15;2.72;;;10.90;1.00;;;12.73;70.99;100192.22;5061878;27;119591;-70
2022/09/06 06:41:32;;;;;;;5.50;2.53;;;11.10;1.00;;;12.83;69.84;100196.66;5045868;27;129685;-69
2022/09/06 06:44:04;;;;;;;5.80;2.60;;;11.20;1.00;;;13.04;68.46;100191.47;5060501;27;130177;-70
2022/09/06 06:46:35;;;;;;;9.10;2.55;;;11.40;1.00;;;13.07;66.27;100196.31;5059837;27;122239;-68
2022/09/06 06:49:05;;;;;;;4.78;2.38;;;11.00;1.00;;;12.84;66.81;100193.63;5061192;27;122271;-71
2022/09/06 06:51:36;;;;;;;5.35;2.50;;;10.80;1.00;;;13.00;65.70;100195.97;5060749;27;130060;-69
2022/09/06 06:54:04;;;;;;;5.30;2.33;;;11.10;1.00;;;12.62;67.72;100194.41;5061081;27;130018;-70
2022/09/06 06:56:36;;;;;;;7.20;3.28;;;11.10;1.00;;;12.95;67.56;100194.97;5061065;27;119462;-70
2022/09/06 06:59:07;;;;;;;6.03;3.10;;;11.10;1.00;;;13.14;67.13;100196.69;5061104;27;119961;-71
2022/09/06 07:01:37;;;;;;;6.05;2.47;;;11.40;1.00;;;13.39;66.79;100203.41;5060701;27;130897;-69
2022/09/06 07:04:09;;;;;;;7.18;2.80;;;11.40;1.00;;;13.72;65.04;100197.63;5062704;27;129507;-70
2022/09/06 07:06:49;;;;;;;11.57;2.72;;;11.70;1.00;;;13.72;62.66;100199.56;5060919;27;120040;-71
2022/09/06 07:09:19;;;;;;;7.13;2.00;;;11.50;1.00;;;13.92;62.39;100198.97;5060967;27;119351;-71
2022/09/06 07:11:49;;;;;;;6.93;2.55;;;11.60;1.00;;;13.87;61.66;100201.03;5059390;27;129886;-71
2022/09/06 07:14:19;;;;;;;4.78;1.98;;;11.60;1.00;;;14.08;60.32;100201.28;5060451;27;130058;-68
2022/09/06 07:16:50;;;;;;;7.18;2.70;;;11.70;1.00;;;14.11;60.01;100195.19;5060995;27;120156;-70
2022/09/06 07:19:19;;;;;;;2.95;1.40;;;11.80;1.00;;;13.94;51.27;100201.38;5060737;27;119394;-70
2022/09/06 07:21:47;;;;;;;3.25;1.52;;;12.00;1.00;;;13.05;50.79;100198.56;5059980;27;130009;-68
2022/09/06 07:24:15;;;;;;;3.55;1.70;;;11.60;1.00;;;13.57;50.96;100209.78;5060224;27;129625;-68
2022/09/06 07:26:44;;;;;;;4.65;1.67;;;12.20;1.00;;;13.90;51.60;100201.22;5060311;27;120247;-70
2022/09/06 07:29:13;;;;;;;6.05;2.00;;;12.40;1.00;;;13.99;52.37;100199.34;5060763;27;119540;-69
2022/09/06 07:31:43;;;;;;;4.35;2.28;;;12.30;1.00;;;14.30;51.83;100201.13;5059975;27;131249;-70
2022/09/06 07:34:12;;;;;;;3.72;1.55;;;12.50;1.00;;;13.68;51.31;100193.94;5060157;27;129544;-69
2022/09/06 07:36:40;;;;;;;4.28;1.63;;;11.80;1.00;;;13.84;50.97;100197.03;5059124;27;122099;-68
2022/09/06 07:39:09;;;;;;;4.82;1.80;;;12.30;1.00;;;13.78;49.30;100192.84;5060660;27;122976;-68
2022/09/06 07:41:38;;;;;;;1.90;1.25;;;12.30;1.00;;;13.50;42.58;100200.44;5060026;27;129989;-68
2022/09/06 07:44:07;;;;;;;2.75;1.25;;;12.10;1.00;;;12.82;44.45;100189.56;5059259;27;129608;-67
2022/09/06 07:46:36;;;;;;;3.55;1.50;;;11.90;1.00;;;12.85;45.24;100197.94;5060095;27;120081;-69
2022/09/06 07:49:06;;;;;;;3.45;1.33;;;11.90;1.00;;;12.85;46.96;100189.75;5060324;27;120112;-68
2022/09/06 07:51:35;;;;;;;4.00;1.52;;;12.00;1.00;;;13.00;47.38;100190.50;5060129;27;130570;-67
2022/09/06 07:54:04;;;;;;;4.78;1.70;;;12.20;1.00;;;12.98;48.88;100184.56;5059930;27;130036;-69
2022/09/06 07:56:32;;;;;;;2.80;1.50;;;12.00;1.00;;;13.20;48.16;100187.25;5060297;27;120039;-68
2022/09/06 07:59:01;;;;;;;2.72;1.50;;;12.40;1.00;;;13.75;46.89;100185.28;5060313;27;119831;-67
2022/09/06 08:01:33;;;;;;;3.78;1.13;;;12.90;1.00;;;13.71;43.73;100176.13;5058702;27;130387;-68
2022/09/06 08:04:05;;;;;;;3.63;1.40;;;12.50;1.00;;;13.44;45.32;100183.41;5061510;27;129523;-72
2022/09/06 08:06:36;;;;;;;1.58;0.95;;;12.30;1.00;;;13.77;43.65;100177.59;5059984;27;119929;-70
2022/09/06 08:09:08;;;;;;;2.70;1.23;;;12.70;1.00;;;14.79;42.76;100176.44;5060084;27;119312;-68
2022/09/06 08:11:38;;;;;;;2.72;1.33;;;13.50;1.00;;;14.87;41.74;100183.03;5059588;27;129921;-70
2022/09/06 08:14:09;;;;;;;3.55;1.60;;;13.30;1.00;;;14.80;38.52;100171.78;5059568;27;129609;-67
2022/09/06 08:16:38;;;;;;;1.75;0.95;;;13.20;1.00;;;13.95;39.40;100171.06;5060055;27;119626;-69
2022/09/06 08:19:10;;;;;;;2.88;1.15;;;12.70;1.00;;;13.79;41.18;100172.59;5041907;27;119401;-69
2022/09/06 08:21:39;;;;;;;2.33;1.17;;;12.40;1.00;;;13.54;42.92;100177.69;5059515;27;130078;-70
2022/09/06 08:24:10;;;;;;;3.22;1.00;;;12.40;1.00;;;13.00;42.29;100185.06;5062852;27;132017;-67
2022/09/06 08:26:41;;;;;;;1.45;1.00;;;12.20;1.00;;;12.61;42.00;100183.81;5058303;27;121912;-68
2022/09/06 08:29:10;;;;;;;2.50;1.20;;;12.10;1.00;;;12.59;41.51;100190.38;5059667;27;122681;-68
2022/09/06 08:31:41;;;;;;;2.47;1.10;;;12.00;1.00;;;12.56;42.34;100180.09;5059466;27;130331;-69
2022/09/06 08:34:13;;;;;;;4.53;1.20;;;12.10;1.00;;;12.57;42.88;100175.44;5060696;27;129465;-71
2022/09/06 08:36:42;;;;;;;1.85;1.00;;;12.10;1.00;;;12.76;43.41;100180.72;5048243;27;118430;-69
2022/09/06 08:39:12;;;;;;;1.00;0.80;;;12.20;1.00;;;12.81;43.67;100175.16;5063315;27;120125;-68
2022/09/06 08:41:50;;;;;;;2.13;0.90;;;12.20;1.00;;;12.88;43.41;100167.34;5062821;27;130442;-68
2022/09/06 08:44:23;;;;;;;2.80;1.48;;;12.30;1.00;;;12.97;43.35;100169.34;5063156;27;129867;-71
2022/09/06 08:46:58;;;;;;;3.72;1.70;;;12.30;1.00;;;13.04;43.61;100162.34;5063415;27;120307;-68
2022/09/06 08:49:31;;;;;;;9.15;1.40;;;12.30;1.00;;;13.71;42.55;100159.75;5063471;27;119503;-70
2022/09/06 08:52:25;;;;;;;2.50;0.95;;;12.80;1.00;;;14.10;40.26;100158.91;5061435;27;130119;-69
2022/09/06 08:55:09;;;;;;;2.40;0.82;;;12.90;1.00;;;13.94;40.62;100155.00;5062645;27;129607;-67
2022/09/06 08:58:05;;;;;;;3.33;1.30;;;12.80;1.00;;;14.47;40.22;100142.22;5063035;27;120609;-68
2022/09/06 09:00:40;;;;;;;3.10;1.47;;;13.00;1.00;;;14.59;40.50;100150.56;5063026;27;119687;-67
2022/09/06 09:03:14;;;;;;;2.17;1.10;;;13.40;1.00;;;14.24;41.42;100139.63;5062986;27;130296;-68
2022/09/06 09:05:48;;;;;;;3.33;1.55;;;13.20;1.00;;;14.53;40.91;100135.47;5062463;27;129666;-70
2022/09/06 09:08:26;;;;;;;2.42;1.20;;;13.50;1.00;;;13.80;43.11;100142.28;5063064;27;119699;-71
2022/09/06 09:11:01;;;;;;;2.42;1.10;;;12.60;1.00;;;13.48;44.23;100136.09;5063247;27;119641;-72
2022/09/06 09:13:38;;;;;;;3.35;1.30;;;12.50;1.00;;;13.31;45.12;100136.00;5062143;27;130330;-70
2022/09/06 09:16:07;;;;;;;1.90;1.20;;;12.60;1.00;;;13.36;45.41;100146.00;5062370;27;129852;-69
2022/09/06 09:18:40;;;;;;;3.20;1.40;;;12.50;1.00;;;13.45;45.49;100138.66;5061809;27;122217;-70
2022/09/06 09:21:10;;;;;;;3.75;1.30;;;12.60;1.00;;;13.50;45.84;100140.44;5047887;27;122080;-70
2022/09/06 09:23:39;;;;;;;2.17;1.23;;;12.60;1.00;;;13.30;46.45;100137.91;5062386;27;129552;-70
2022/09/06 09:26:14;;;;;;;5.32;1.30;;;12.50;1.00;;;13.48;46.35;100140.75;5062096;27;129768;-70
2022/09/06 09:29:08;;;;;;;2.58;1.80;;;12.50;1.00;;;13.55;45.73;100135.63;5062486;27;119695;-69
2022/09/06 09:31:39;;;;;;;1.20;1.00;;;12.60;1.00;;;13.91;44.98;100131.88;5062580;27;119508;-69
2022/09/06 09:34:13;;;;;;;1.90;1.25;;;12.90;1.00;;;14.00;44.68;100135.44;5061949;27;130611;-68
2022/09/06 09:36:43;;;;;;;5.28;1.60;;;12.80;1.00;;;14.43;43.85;100130.31;5047244;27;130138;-69
2022/09/06 09:39:12;;;;;;;2.67;1.30;;;13.00;1.00;;;15.14;41.86;100126.38;5062396;27;120159;-70
2022/09/06 09:41:42;;;;;;;2.38;1.20;;;13.10;1.00;;;15.38;40.89;100132.06;5062599;27;119857;-69
2022/09/06 09:44:18;;;;;;;2.70;1.45;;;12.90;1.00;;;14.89;42.07;100129.63;5060731;27;130203;-67
2022/09/06 09:46:47;;;;;;;4.50;1.10;;;13.10;1.00;;;14.48;42.50;100127.44;5061911;27;130016;-67
2022/09/06 09:49:29;;;;;;;2.90;1.20;;;13.20;1.00;;;14.50;41.65;100131.44;5062157;27;120064;-67
2022/09/06 09:52:10;;;;;;;3.72;1.10;;;13.20;1.00;;;13.96;41.35;100129.03;5062268;27;119128;-68
2022/09/06 09:54:42;;;;;;;2.20;0.90;;;12.90;1.00;;;14.01;41.95;100131.59;5061763;27;130195;-68
2022/09/06 09:57:15;;;;;;;3.22;1.10;;;12.90;1.00;;;13.70;42.53;100130.88;5061598;27;129963;-66
2022/09/06 09:59:50;;;;;;;2.03;1.10;;;12.80;1.00;;;13.65;43.53;100124.44;5062089;27;120224;-68
2022/09/06 10:02:25;;;;;;;2.73;1.20;;;12.70;1.00;;;13.39;46.17;100132.53;5062306;27;119445;-70
2022/09/06 10:05:01;;;;;;;3.17;1.58;;;12.60;1.00;;;13.28;46.65;100134.72;5064562;27;130008;-69
2022/09/06 10:07:33;;;;;;;2.67;1.65;;;12.50;1.00;;;13.05;47.95;100133.94;5061751;27;129676;-69
2022/09/06 10:10:10;;;;;;;3.35;1.30;;;12.40;1.00;;;13.35;46.90;100126.09;5060509;27;122224;-68
2022/09/06 10:12:41;;;;;;;4.05;1.70;;;12.50;1.00;;;13.27;47.40;100133.09;5061819;27;122273;-68
2022/09/06 10:15:32;;;;;;;4.10;1.63;;;12.60;1.00;;;13.59;46.52;100135.84;5061506;27;130439;-68
2022/09/06 10:18:00;;;;;;;2.38;1.30;;;12.70;1.00;;;13.75;45.77;100122.56;5061319;27;129627;-67
2022/09/06 10:20:41;;;;;;;3.15;1.50;;;12.70;1.00;;;13.64;45.21;100128.28;5061482;27;120050;-67
2022/09/06 10:23:18;;;;;;;3.78;1.50;;;12.70;1.00;;;13.78;44.55;100124.66;5061431;27;119544;-67
2022/09/06 10:25:52;;;;;;;2.53;1.30;;;12.80;1.00;;;14.49;42.70;100123.56;5061050;27;130145;-70
2022/09/06 10:28:35;;;;;;;3.28;1.27;;;13.10;1.00;;;14.90;42.04;100127.72;5043284;27;129579;-69
2022/09/06 10:31:50;;;;;;;3.58;1.70;;;13.20;1.00;;;14.79;41.88;100129.19;5046596;27;118732;-68
2022/09/06 10:34:57;;;;;;;6.72;2.58;;;13.30;1.00;;;15.54;39.44;100118.63;5061278;27;119308;-67
2022/09/06 10:37:48;;;;;;;4.37;1.90;;;13.60;1.00;;;15.89;38.24;100117.66;5059858;27;130378;-69